Havering, United Kingdom
Current Conditions -  °F | °C
As of 6:20 PM on Tuesday 21 Oct 2014 (Local Time) from EGLC Reporting Station
Few Clouds Few Clouds  
Wind Chill: 52°   Ceiling: Unl
Heat Index: 52°   Visibility: 6mi
Dew Point: 41°   Wind: 20mph
Humidity: 67%   Direction: 290°WNW
Pressure: 29.91"   Gusts: NA
Location:  51.56°N, 0.24°E
Report Text: EGLC 211720Z 29017KT 9999 FEW025 11/05 Q1013
Loading
Personal Weather Stations






























Interactive Weather Map
Tropical Storm Tracking
New forecast layout! Learn more

10-Day Weather Forecast

Advertisements
Track Severe Weather on mobile